createdAt,value
2023-01-11T00:01:32.333Z,5.18
2023-01-11T00:04:00.265Z,5.20
2023-01-11T00:06:28.145Z,4.53
2023-01-11T00:08:56.402Z,5.05
2023-01-11T00:11:24.215Z,4.35
2023-01-11T00:13:53.351Z,4.18
2023-01-11T00:16:21.237Z,3.60
2023-01-11T00:18:49.089Z,4.37
2023-01-11T00:21:16.900Z,4.45
2023-01-11T00:23:44.657Z,4.18
2023-01-11T00:26:13.758Z,4.45
2023-01-11T00:28:41.783Z,4.40
2023-01-11T00:31:11.270Z,4.27
2023-01-11T00:33:39.171Z,4.22
2023-01-11T00:36:07.752Z,5.03
2023-01-11T00:38:46.730Z,5.30
2023-01-11T00:41:33.740Z,3.83
2023-01-11T00:44:19.068Z,3.43
2023-01-11T00:47:05.997Z,4.10
2023-01-11T00:49:34.011Z,3.60
2023-01-11T00:52:02.176Z,3.90
2023-01-11T00:54:29.918Z,3.90
2023-01-11T00:56:57.680Z,4.70
2023-01-11T00:59:25.499Z,4.95
2023-01-11T01:01:54.579Z,5.72
2023-01-11T01:04:22.444Z,4.70
2023-01-11T01:06:50.259Z,5.07
2023-01-11T01:09:18.049Z,4.70
2023-01-11T01:11:45.771Z,3.92
2023-01-11T01:14:26.295Z,5.43
2023-01-11T01:16:56.749Z,4.60
2023-01-11T01:19:25.921Z,4.90
2023-01-11T01:21:53.727Z,4.50
2023-01-11T01:24:21.644Z,4.00
2023-01-11T01:26:49.794Z,4.40
2023-01-11T01:29:17.640Z,4.50
2023-01-11T01:31:45.473Z,4.30
2023-01-11T01:34:14.805Z,3.10
2023-01-11T01:36:44.179Z,3.47
2023-01-11T01:39:12.799Z,2.38
2023-01-11T01:41:40.905Z,1.92
2023-01-11T01:44:41.901Z,2.10
2023-01-11T01:47:10.358Z,2.37
2023-01-11T01:49:40.055Z,2.53
2023-01-11T01:52:09.197Z,2.28
2023-01-11T01:54:41.841Z,2.30
2023-01-11T01:57:14.109Z,2.00
2023-01-11T01:59:42.552Z,2.40
2023-01-11T02:02:10.839Z,2.10
2023-01-11T02:04:43.727Z,2.20
2023-01-11T02:07:15.657Z,2.67
2023-01-11T02:09:47.599Z,2.80
2023-01-11T02:12:16.582Z,2.80
2023-01-11T02:14:45.629Z,3.75
2023-01-11T02:17:13.654Z,3.35
2023-01-11T02:19:52.869Z,3.92
2023-01-11T02:22:51.011Z,4.30
2023-01-11T02:25:51.069Z,3.30
2023-01-11T02:28:26.022Z,4.13
2023-01-11T02:31:00.443Z,3.45
2023-01-11T02:33:40.314Z,3.25
2023-01-11T02:36:18.668Z,3.47
2023-01-11T02:38:52.615Z,3.23
2023-01-11T02:41:24.355Z,3.72
2023-01-11T02:44:17.920Z,3.00
2023-01-11T02:46:50.361Z,3.08
2023-01-11T02:49:27.918Z,3.10
2023-01-11T02:52:00.117Z,3.60
2023-01-11T02:54:28.304Z,3.33
2023-01-11T02:57:00.014Z,3.83
2023-01-11T02:59:32.515Z,3.95
2023-01-11T03:02:00.598Z,3.47
2023-01-11T03:04:30.853Z,3.67
2023-01-11T03:07:23.519Z,4.22
2023-01-11T03:10:02.386Z,3.95
2023-01-11T03:12:51.903Z,2.90
2023-01-11T03:15:45.298Z,2.45
2023-01-11T03:18:28.158Z,3.50
2023-01-11T03:21:05.359Z,4.22
2023-01-11T03:23:39.489Z,3.25
2023-01-11T03:26:17.238Z,3.38
2023-01-11T03:28:54.260Z,3.03
2023-01-11T03:31:31.332Z,3.83
2023-01-11T03:34:07.667Z,3.20
2023-01-11T03:36:39.197Z,3.50
2023-01-11T03:39:15.701Z,3.47
2023-01-11T03:41:45.061Z,2.80
2023-01-11T03:44:15.638Z,3.90
2023-01-11T03:46:49.609Z,4.10
2023-01-11T03:49:21.937Z,2.80
2023-01-11T03:51:51.967Z,3.35
2023-01-11T03:54:23.847Z,3.67
2023-01-11T03:57:00.405Z,3.63
2023-01-11T03:59:29.213Z,3.35
2023-01-11T04:01:59.081Z,2.85
2023-01-11T04:04:27.108Z,2.75
2023-01-11T04:06:54.980Z,2.53
2023-01-11T04:09:22.792Z,3.30
2023-01-11T04:11:50.624Z,3.10
2023-01-11T04:14:18.396Z,3.30
2023-01-11T04:16:46.109Z,2.92
2023-01-11T04:19:15.354Z,2.70
2023-01-11T04:21:44.046Z,3.03
2023-01-11T04:24:13.740Z,2.15
2023-01-11T04:26:41.694Z,2.63
2023-01-11T04:29:10.989Z,3.58
2023-01-11T04:31:38.782Z,2.85
2023-01-11T04:34:06.695Z,2.80
2023-01-11T04:36:35.789Z,2.65
2023-01-11T04:39:03.644Z,4.10
2023-01-11T04:41:48.763Z,3.25
2023-01-11T04:44:16.556Z,2.83
2023-01-11T04:46:44.416Z,4.10
2023-01-11T04:49:12.234Z,2.45
2023-01-11T04:51:41.357Z,3.47
2023-01-11T04:54:10.230Z,2.50
2023-01-11T04:56:38.090Z,3.65
2023-01-11T04:59:05.935Z,3.00
2023-01-11T05:01:33.675Z,3.25
2023-01-11T05:04:01.459Z,3.00
2023-01-11T05:06:29.241Z,2.55
2023-01-11T05:08:58.525Z,2.67
2023-01-11T05:11:26.398Z,2.37
2023-01-11T05:13:54.268Z,2.20
2023-01-11T05:16:24.006Z,2.22
2023-01-11T05:18:53.989Z,2.65
2023-01-11T05:21:23.350Z,2.78
2023-01-11T05:23:51.406Z,2.70
2023-01-11T05:26:23.763Z,2.67
2023-01-11T05:28:52.460Z,2.63
2023-01-11T05:31:20.419Z,2.20
2023-01-11T05:33:48.511Z,1.90
2023-01-11T05:36:19.174Z,2.70
2023-01-11T05:38:48.079Z,2.28
2023-01-11T05:41:17.154Z,2.42
2023-01-11T05:44:05.234Z,1.80
2023-01-11T05:46:33.967Z,2.38
2023-01-11T05:49:02.606Z,3.13
2023-01-11T05:51:32.550Z,3.22
2023-01-11T05:54:00.424Z,2.60
2023-01-11T05:56:28.326Z,2.35
2023-01-11T05:58:57.544Z,2.25
2023-01-11T06:01:26.301Z,2.00
2023-01-11T06:03:54.265Z,1.85
2023-01-11T06:06:22.462Z,1.52
2023-01-11T06:08:50.365Z,2.30
2023-01-11T06:11:18.266Z,2.35
2023-01-11T06:13:46.062Z,1.73
2023-01-11T06:16:17.255Z,1.92
2023-01-11T06:18:46.925Z,2.10
2023-01-11T06:21:15.100Z,1.63
2023-01-11T06:23:45.633Z,2.88
2023-01-11T06:26:15.318Z,2.13
2023-01-11T06:28:43.791Z,1.90
2023-01-11T06:31:11.962Z,2.17
2023-01-11T06:33:41.186Z,2.33
2023-01-11T06:36:10.998Z,4.10
2023-01-11T06:38:39.175Z,2.13
2023-01-11T06:41:09.307Z,1.88
2023-01-11T06:43:38.539Z,1.63
2023-01-11T06:46:06.975Z,1.90
2023-01-11T06:48:34.813Z,2.42
2023-01-11T06:51:03.924Z,3.20
2023-01-11T06:53:31.690Z,2.05
2023-01-11T06:56:00.020Z,1.67
2023-01-11T06:58:28.016Z,1.50
2023-01-11T07:00:58.027Z,1.95
2023-01-11T07:03:27.357Z,1.73
2023-01-11T07:05:56.665Z,1.60
2023-01-11T07:08:26.467Z,1.60
2023-01-11T07:10:55.425Z,1.85
2023-01-11T07:13:23.501Z,1.65
2023-01-11T07:15:54.106Z,1.90
2023-01-11T07:18:22.984Z,1.67
2023-01-11T07:20:51.639Z,1.52
2023-01-11T07:23:19.666Z,2.42
2023-01-11T07:25:49.246Z,1.60
2023-01-11T07:28:17.150Z,2.00
2023-01-11T07:30:57.675Z,1.80
2023-01-11T07:33:27.077Z,1.85
2023-01-11T07:35:54.947Z,1.63
2023-01-11T07:38:23.336Z,1.77
2023-01-11T07:40:52.524Z,1.50
2023-01-11T07:43:22.987Z,2.45
2023-01-11T07:45:53.102Z,1.50
2023-01-11T07:48:25.308Z,2.00
2023-01-11T07:50:54.262Z,1.85
2023-01-11T07:53:25.384Z,1.80
2023-01-11T07:55:56.177Z,1.70
2023-01-11T07:58:24.318Z,2.42
2023-01-11T08:00:52.175Z,2.20
2023-01-11T08:03:20.168Z,2.08
2023-01-11T08:05:50.728Z,2.30
2023-01-11T08:08:18.572Z,2.15
2023-01-11T08:10:46.406Z,1.83
2023-01-11T08:13:33.804Z,2.05
2023-01-11T08:16:01.585Z,1.95
2023-01-11T08:18:29.378Z,2.13
2023-01-11T08:20:57.302Z,2.30
2023-01-11T08:23:25.447Z,1.92
2023-01-11T08:25:57.560Z,1.65
2023-01-11T08:28:26.829Z,1.73
2023-01-11T08:30:54.717Z,1.70
2023-01-11T08:33:22.569Z,1.85
2023-01-11T08:35:50.399Z,3.25
2023-01-11T08:38:18.285Z,1.75
2023-01-11T08:40:47.280Z,1.50
2023-01-11T08:43:15.059Z,2.60
2023-01-11T08:45:44.211Z,1.98
2023-01-11T08:48:12.786Z,2.00
2023-01-11T08:50:40.506Z,1.75
2023-01-11T08:53:08.433Z,2.33
2023-01-11T08:55:36.699Z,1.70
2023-01-11T08:58:04.654Z,2.10
2023-01-11T09:00:32.458Z,1.70
2023-01-11T09:03:03.022Z,1.95
2023-01-11T09:05:30.809Z,1.70
2023-01-11T09:07:58.971Z,1.80
2023-01-11T09:10:27.223Z,1.42
2023-01-11T09:12:55.393Z,1.42
2023-01-11T09:15:23.216Z,3.28
2023-01-11T09:17:51.422Z,2.78
2023-01-11T09:20:22.191Z,2.20
2023-01-11T09:22:52.904Z,2.28
2023-01-11T09:25:21.677Z,2.08
2023-01-11T09:27:51.579Z,1.77
2023-01-11T09:30:21.425Z,2.67
2023-01-11T09:32:50.999Z,2.17
2023-01-11T09:35:21.864Z,1.95
2023-01-11T09:37:50.541Z,2.17
2023-01-11T09:40:21.819Z,2.22
2023-01-11T09:42:52.720Z,2.05
2023-01-11T09:45:23.369Z,1.80
2023-01-11T09:47:57.144Z,2.33
2023-01-11T09:50:30.166Z,2.55
2023-01-11T09:53:00.035Z,1.67
2023-01-11T09:55:34.274Z,2.38
2023-01-11T09:58:22.930Z,1.63
2023-01-11T10:01:01.132Z,1.58
2023-01-11T10:03:54.327Z,1.98
2023-01-11T10:06:28.679Z,1.90
2023-01-11T10:18:33.996Z,1.85
2023-01-11T10:18:48.925Z,1.73
2023-01-11T10:21:16.087Z,2.13
2023-01-11T10:23:50.422Z,2.25
2023-01-11T10:26:27.567Z,2.50
2023-01-11T10:29:17.312Z,2.00
2023-01-11T10:32:06.342Z,2.00
2023-01-11T10:34:58.006Z,2.10
2023-01-11T10:37:46.636Z,2.83
2023-01-11T10:40:37.465Z,2.00
2023-01-11T10:43:16.664Z,1.70
2023-01-11T10:45:50.250Z,2.42
2023-01-11T10:48:23.703Z,2.28
2023-01-11T10:51:01.626Z,1.63
2023-01-11T10:53:35.859Z,2.13
2023-01-11T10:56:19.841Z,1.75
2023-01-11T10:59:05.040Z,2.30
2023-01-11T11:01:49.167Z,2.53
2023-01-11T11:04:34.659Z,2.03
2023-01-11T11:07:08.431Z,2.43
2023-01-11T11:09:43.234Z,1.90
2023-01-11T11:12:19.359Z,1.85
2023-01-11T11:14:52.874Z,2.88
2023-01-11T11:17:25.942Z,2.70
2023-01-11T11:19:54.113Z,2.00
2023-01-11T11:22:22.020Z,2.20
2023-01-11T11:24:53.429Z,2.58
2023-01-11T11:27:28.887Z,2.78
2023-01-11T11:29:57.907Z,2.13
2023-01-11T11:32:28.791Z,2.23
2023-01-11T11:34:56.726Z,2.83
2023-01-11T11:37:28.155Z,2.35
2023-01-11T11:39:56.267Z,1.85
2023-01-11T11:42:26.011Z,3.75
2023-01-11T11:45:21.965Z,2.03
2023-01-11T11:48:03.651Z,2.97
2023-01-11T11:50:44.362Z,2.92
2023-01-11T11:53:26.002Z,2.88
2023-01-11T11:55:54.670Z,2.72
2023-01-11T11:58:26.780Z,2.70
2023-01-11T12:00:55.055Z,2.53
2023-01-11T12:03:28.232Z,3.08
2023-01-11T12:06:01.112Z,2.65
2023-01-11T12:08:30.623Z,2.28
2023-01-11T12:11:00.605Z,3.03
2023-01-11T12:13:33.887Z,2.47
2023-01-11T12:16:03.100Z,2.53
2023-01-11T12:18:33.457Z,2.25
2023-01-11T12:21:20.159Z,2.83
2023-01-11T12:23:48.426Z,2.40
2023-01-11T12:26:21.736Z,3.33
2023-01-11T12:29:26.041Z,2.30
2023-01-11T12:32:11.827Z,2.60
2023-01-11T12:35:05.902Z,2.20
2023-01-11T12:37:54.365Z,2.87
2023-01-11T12:40:30.040Z,2.08
2023-01-11T12:43:13.474Z,2.75
2023-01-11T12:45:51.004Z,2.55
2023-01-11T12:48:49.644Z,2.17
2023-01-11T12:51:32.943Z,2.67
2023-01-11T12:54:11.401Z,2.67
2023-01-11T12:56:56.449Z,2.10
2023-01-11T12:59:42.857Z,2.70
2023-01-11T13:02:33.173Z,2.70
2023-01-11T13:05:14.014Z,2.43
2023-01-11T13:07:53.671Z,2.20
2023-01-11T13:10:36.347Z,3.30
2023-01-11T13:13:09.651Z,2.47
2023-01-11T13:15:48.861Z,2.53
2023-01-11T13:18:30.862Z,2.57
2023-01-11T13:21:06.804Z,2.58
2023-01-11T13:23:43.026Z,2.35
2023-01-11T13:26:20.426Z,2.40
2023-01-11T13:28:52.353Z,2.33
2023-01-11T13:31:21.185Z,2.70
2023-01-11T13:33:55.937Z,2.58
2023-01-11T13:36:27.089Z,1.83
2023-01-11T13:38:59.104Z,2.25
2023-01-11T13:41:32.273Z,2.08
2023-01-11T13:44:05.107Z,2.37
2023-01-11T13:46:52.448Z,2.95
2023-01-11T13:49:40.023Z,2.47
2023-01-11T13:52:14.423Z,2.42
2023-01-11T13:54:51.495Z,2.30
2023-01-11T13:57:25.937Z,1.90
2023-01-11T13:59:58.592Z,2.40
2023-01-11T14:02:37.978Z,2.30
2023-01-11T14:05:15.532Z,2.63
2023-01-11T14:07:55.917Z,2.30
2023-01-11T14:10:52.822Z,2.57
2023-01-11T14:13:57.280Z,2.00
2023-01-11T14:16:36.595Z,2.22
2023-01-11T14:19:13.081Z,2.78
2023-01-11T14:21:56.201Z,2.20
2023-01-11T14:24:26.462Z,2.30
2023-01-11T14:27:11.379Z,2.00
2023-01-11T14:30:08.102Z,3.60
2023-01-11T14:32:57.098Z,1.88
2023-01-11T14:35:51.982Z,3.00
2023-01-11T14:38:44.291Z,2.47
2023-01-11T14:41:46.946Z,2.90
2023-01-11T14:44:33.919Z,2.30
2023-01-11T14:47:34.976Z,2.50
2023-01-11T14:50:13.137Z,2.80
2023-01-11T14:52:43.116Z,2.13
2023-01-11T14:55:20.160Z,2.47
2023-01-11T14:58:03.247Z,2.33
2023-01-11T15:01:09.080Z,2.50
2023-01-11T15:03:48.833Z,2.33
2023-01-11T15:06:20.404Z,1.97
2023-01-11T15:08:52.199Z,2.67
2023-01-11T15:11:41.708Z,2.10
2023-01-11T15:14:29.594Z,3.20
2023-01-11T15:17:18.361Z,2.10
2023-01-11T15:19:47.383Z,2.40
2023-01-11T15:22:27.219Z,3.17
2023-01-11T15:25:01.304Z,2.45
2023-01-11T15:27:34.383Z,2.83
2023-01-11T15:30:02.509Z,2.45
2023-01-11T15:32:32.498Z,3.30
2023-01-11T15:35:33.015Z,2.10
2023-01-11T15:38:10.164Z,2.20
2023-01-11T15:40:40.918Z,2.65
2023-01-11T15:43:50.010Z,2.35
2023-01-11T15:46:56.458Z,2.00
2023-01-11T15:49:50.025Z,1.95
2023-01-11T15:52:51.441Z,3.22
2023-01-11T15:55:49.410Z,2.58
2023-01-11T15:58:38.727Z,2.88
2023-01-11T16:01:21.856Z,1.83
2023-01-11T16:04:00.767Z,2.50
2023-01-11T16:06:39.424Z,2.08
2023-01-11T16:09:23.924Z,2.70
2023-01-11T16:12:02.602Z,2.78
2023-01-11T16:15:00.901Z,2.30
2023-01-11T16:17:30.485Z,2.40
2023-01-11T16:19:59.383Z,2.47
2023-01-11T16:22:29.188Z,2.40
2023-01-11T16:24:59.798Z,2.67
2023-01-11T16:27:29.569Z,2.57
2023-01-11T16:29:57.787Z,2.38
2023-01-11T16:32:29.517Z,2.67
2023-01-11T16:34:58.961Z,2.60
2023-01-11T16:37:30.571Z,2.53
2023-01-11T16:40:03.175Z,3.27
2023-01-11T16:42:35.593Z,2.72
2023-01-11T16:45:07.058Z,3.00
2023-01-11T16:47:34.909Z,3.35
2023-01-11T16:50:21.603Z,3.00
2023-01-11T16:52:52.956Z,4.00
2023-01-11T16:55:24.778Z,2.85
2023-01-11T16:57:55.316Z,2.45
2023-01-11T17:00:28.794Z,2.55
2023-01-11T17:03:20.813Z,2.47
2023-01-11T17:06:19.866Z,2.47
2023-01-11T17:08:49.981Z,2.15
2023-01-11T17:11:26.325Z,3.50
2023-01-11T17:14:12.413Z,2.70
2023-01-11T17:16:42.472Z,3.13
2023-01-11T17:19:16.071Z,2.40
2023-01-11T17:21:51.715Z,2.33
2023-01-11T17:24:23.886Z,3.40
2023-01-11T17:26:54.602Z,2.72
2023-01-11T17:29:28.303Z,3.47
2023-01-11T17:31:58.082Z,2.57
2023-01-11T17:34:30.544Z,2.40
2023-01-11T17:37:01.253Z,3.17
2023-01-11T17:39:32.702Z,2.60
2023-01-11T17:42:20.037Z,3.28
2023-01-11T17:45:07.674Z,2.13
2023-01-11T17:47:38.437Z,2.40
2023-01-11T17:50:07.486Z,2.42
2023-01-11T17:52:43.823Z,3.38
2023-01-11T17:55:20.075Z,2.55
2023-01-11T17:58:11.492Z,2.57
2023-01-11T18:00:39.518Z,3.65
2023-01-11T18:03:14.301Z,3.63
2023-01-11T18:05:43.547Z,2.67
2023-01-11T18:08:20.969Z,2.92
2023-01-11T18:10:52.457Z,3.53
2023-01-11T18:13:25.555Z,3.13
2023-01-11T18:15:53.573Z,3.97
2023-01-11T18:18:42.538Z,2.92
2023-01-11T18:21:32.479Z,3.55
2023-01-11T18:24:31.344Z,2.63
2023-01-11T18:27:24.358Z,2.50
2023-01-11T18:29:53.394Z,2.53
2023-01-11T18:32:22.001Z,3.10
2023-01-11T18:34:53.409Z,2.92
2023-01-11T18:37:22.016Z,3.13
2023-01-11T18:39:53.160Z,2.80
2023-01-11T18:42:25.593Z,2.78
2023-01-11T18:44:53.504Z,2.67
2023-01-11T18:47:23.098Z,3.28
2023-01-11T18:49:52.109Z,3.20
2023-01-11T18:52:21.142Z,2.65
2023-01-11T18:54:49.158Z,3.50
2023-01-11T18:57:18.510Z,2.38
2023-01-11T18:59:46.834Z,2.30
2023-01-11T19:04:55.189Z,2.17
2023-01-11T19:07:24.170Z,2.47
2023-01-11T19:09:54.723Z,2.70
2023-01-11T19:12:24.166Z,2.75
2023-01-11T19:14:52.337Z,3.40
2023-01-11T19:17:20.140Z,2.50
2023-01-11T19:19:48.184Z,4.20
2023-01-11T19:22:16.176Z,2.85
2023-01-11T19:24:43.954Z,2.97
2023-01-11T19:27:13.543Z,2.90
2023-01-11T19:29:42.943Z,2.80
2023-01-11T19:32:10.796Z,2.72
2023-01-11T19:34:39.665Z,2.63
2023-01-11T19:37:07.744Z,3.35
2023-01-11T19:39:36.525Z,3.57
2023-01-11T19:42:04.471Z,3.70
2023-01-11T19:44:34.685Z,2.95
2023-01-11T19:47:11.242Z,3.58
2023-01-11T19:49:40.330Z,3.85
2023-01-11T19:52:12.686Z,4.33
2023-01-11T19:54:42.014Z,3.53
2023-01-11T19:57:11.373Z,4.00
2023-01-11T19:59:39.340Z,4.18
2023-01-11T20:02:08.953Z,3.70
2023-01-11T20:04:37.303Z,4.00
2023-01-11T20:07:05.388Z,3.33
2023-01-11T20:09:33.248Z,3.70
2023-01-11T20:12:01.485Z,3.75
2023-01-11T20:14:29.536Z,3.38
2023-01-11T20:16:57.406Z,4.33
2023-01-11T20:19:27.016Z,3.15
2023-01-11T20:21:55.952Z,3.13
2023-01-11T20:24:28.209Z,3.05
2023-01-11T20:26:57.063Z,2.60
2023-01-11T20:29:24.968Z,2.63
2023-01-11T20:31:52.854Z,2.70
2023-01-11T20:34:20.796Z,2.70
2023-01-11T20:36:50.554Z,3.58
2023-01-11T20:39:18.649Z,3.00
2023-01-11T20:41:49.909Z,3.10
2023-01-11T20:44:20.361Z,2.85
2023-01-11T20:46:49.292Z,2.70
2023-01-11T20:49:17.797Z,3.05
2023-01-11T20:51:46.451Z,3.10
2023-01-11T20:54:16.319Z,2.40
2023-01-11T20:56:46.508Z,3.38
2023-01-11T20:59:16.454Z,3.10
2023-01-11T21:01:44.626Z,2.72
2023-01-11T21:04:14.400Z,3.20
2023-01-11T21:06:44.102Z,3.50
2023-01-11T21:09:17.002Z,3.70
2023-01-11T21:11:52.415Z,2.63
2023-01-11T21:14:20.727Z,3.97
2023-01-11T21:16:48.871Z,3.10
2023-01-11T21:19:17.265Z,3.30
2023-01-11T21:21:45.116Z,2.50
2023-01-11T21:24:16.278Z,2.42
2023-01-11T21:26:45.710Z,2.53
2023-01-11T21:29:13.706Z,2.35
2023-01-11T21:31:42.552Z,2.13
2023-01-11T21:34:12.243Z,2.38
2023-01-11T21:36:40.527Z,2.40
2023-01-11T21:39:09.300Z,2.58
2023-01-11T21:41:59.533Z,2.70
2023-01-11T21:44:31.753Z,2.70
2023-01-11T21:47:00.264Z,2.30
2023-01-11T21:49:28.064Z,3.22
2023-01-11T21:51:55.880Z,2.45
2023-01-11T21:54:23.747Z,2.90
2023-01-11T21:56:52.902Z,2.27
2023-01-11T21:59:21.563Z,2.17
2023-01-11T22:01:49.989Z,3.17
2023-01-11T22:04:19.940Z,2.03
2023-01-11T22:06:51.308Z,2.28
2023-01-11T22:09:19.970Z,2.03
2023-01-11T22:11:48.230Z,3.13
2023-01-11T22:14:17.410Z,2.90
2023-01-11T22:16:45.450Z,2.50
2023-01-11T22:19:13.257Z,2.28
2023-01-11T22:21:41.108Z,2.60
2023-01-11T22:24:11.006Z,2.97
2023-01-11T22:26:39.582Z,2.60
2023-01-11T22:29:18.361Z,2.92
2023-01-11T22:31:49.558Z,2.97
2023-01-11T22:34:18.302Z,2.37
2023-01-11T22:36:46.644Z,3.17
2023-01-11T22:39:16.507Z,2.63
2023-01-11T22:41:45.957Z,2.80
2023-01-11T22:44:14.444Z,2.60
2023-01-11T22:46:43.161Z,2.77
2023-01-11T22:49:13.681Z,2.78
2023-01-11T22:51:42.363Z,2.92
2023-01-11T22:54:11.109Z,2.90
2023-01-11T22:56:39.219Z,2.85
2023-01-11T22:59:07.383Z,2.07
2023-01-11T23:01:37.199Z,2.88
2023-01-11T23:04:06.173Z,2.65
2023-01-11T23:06:37.534Z,2.30
2023-01-11T23:09:06.710Z,2.20
2023-01-11T23:11:55.378Z,1.57
2023-01-11T23:14:23.631Z,1.85
2023-01-11T23:16:51.539Z,2.00
2023-01-11T23:19:20.725Z,2.45
2023-01-11T23:21:50.069Z,2.40
2023-01-11T23:24:18.271Z,2.50
2023-01-11T23:26:46.705Z,2.50
2023-01-11T23:29:14.753Z,2.58
2023-01-11T23:31:43.537Z,2.38
2023-01-11T23:34:12.367Z,2.72
2023-01-11T23:36:41.709Z,1.97
2023-01-11T23:39:13.937Z,1.80
2023-01-11T23:41:59.670Z,2.38
2023-01-11T23:44:27.628Z,2.30
2023-01-11T23:47:12.948Z,2.47
2023-01-11T23:49:41.029Z,1.83
2023-01-11T23:52:09.052Z,2.40
2023-01-11T23:54:38.337Z,2.42
2023-01-11T23:57:06.187Z,3.30
2023-01-11T23:59:34.209Z,2.72
